Time;durP1;ratioP1;P1;durP2;ratioP2;P2;SDS_P1;SDS_P2;PMS_P1;PMS_P2;Temp;Humidity;BMP_temperature;BMP_pressure;BME280_temperature;BME280_humidity;BME280_pressure;Samples;Min_cycle;Max_cycle;Signal;HPM_P1;HPM_P2
2023/05/02 00:00:24;;;;;;;3.30;1.70;;;;;;;11.61;61.73;96487.45;106945;1276;22672;-86
2023/05/02 00:04:11;;;;;;;1.90;1.70;;;;;;;11.68;61.74;96489.43;108239;1276;138390;-87
2023/05/02 00:07:38;;;;;;;3.40;1.50;;;;;;;11.64;61.74;96489.65;107248;1276;25372;-86
2023/05/02 00:10:56;;;;;;;;;;;;;;;;;;;;;
2023/05/02 00:14:23;;;;;;;1.80;1.30;;;;;;;11.75;59.63;96486.67;109564;1279;138117;-87
2023/05/02 00:17:50;;;;;;;2.10;1.80;;;;;;;11.80;59.84;96486.34;109583;1277;22224;-87
2023/05/02 00:20:53;;;;;;;;;;;;;;;;;;;;;
2023/05/02 00:23:58;;;;;;;;;;;;;;;;;;;;;
2023/05/02 00:27:25;;;;;;;1.80;1.10;;;;;;;11.99;57.67;96478.78;109653;1277;137873;-87
2023/05/02 00:30:51;;;;;;;2.20;1.40;;;;;;;12.06;57.14;96479.56;109568;1277;22397;-87
2023/05/02 00:34:02;;;;;;;;;;;;;;;;;;;;;
2023/05/02 00:37:37;;;;;;;4.60;3.40;;;;;;;12.16;57.46;96482.64;107192;1280;22733;-87
2023/05/02 00:40:56;;;;;;;4.10;2.50;;;;;;;12.13;58.01;96483.98;107059;1277;25377;-87
2023/05/02 00:44:16;;;;;;;;;;;;;;;;;;;;;
2023/05/02 00:47:40;;;;;;;;;;;;;;;;;;;;;
2023/05/02 00:51:11;;;;;;;6.60;4.60;;;;;;;11.87;58.90;96481.41;109475;1276;140982;-87
2023/05/02 00:54:33;;;;;;;8.20;5.50;;;;;;;11.79;58.78;96478.91;107199;1276;22529;-86
2023/05/02 00:58:00;;;;;;;4.40;2.90;;;;;;;11.70;59.33;96477.16;106978;1276;138182;-86
2023/05/02 01:01:33;;;;;;;3.30;1.50;;;;;;;11.64;58.45;96469.03;109616;1277;22380;-87
2023/05/02 01:05:05;;;;;;;4.70;1.60;;;;;;;11.70;57.43;96467.25;109622;1279;22454;-87
2023/05/02 01:08:41;;;;;;;1.90;0.90;;;;;;;11.79;56.34;96467.98;109635;1280;139060;-87
2023/05/02 01:12:13;;;;;;;2.00;1.30;;;;;;;11.89;56.10;96469.73;109682;1276;22272;-87
2023/05/02 01:15:38;;;;;;;1.40;1.20;;;;;;;11.93;55.84;96468.23;109526;1280;137736;-87
2023/05/02 01:19:02;;;;;;;;;;;;;;;;;;;;;
2023/05/02 01:22:53;;;;;;;1.50;1.20;;;;;;;12.12;54.23;96472.07;109622;1283;138040;-87
2023/05/02 01:25:57;;;;;;;2.30;1.40;;;;;;;12.21;52.84;96473.70;109486;1277;22346;-87
2023/05/02 01:29:29;;;;;;;2.90;1.00;;;;;;;12.36;52.31;96474.13;109624;1276;22343;-87
2023/05/02 01:32:56;;;;;;;8.60;5.90;;;;;;;12.44;52.73;96477.95;109573;1276;138788;-87
2023/05/02 01:36:23;;;;;;;12.90;8.90;;;;;;;12.27;54.95;96483.05;109541;1283;22283;-87
2023/05/02 01:39:47;;;;;;;;;;;;;;;;;;;;;
2023/05/02 01:43:14;;;;;;;14.10;10.70;;;;;;;12.01;56.52;96479.71;109544;1284;22227;-87
2023/05/02 01:46:40;;;;;;;14.50;9.90;;;;;;;11.86;57.69;96482.00;108506;1277;138695;-86
2023/05/02 01:50:08;;;;;;;15.40;10.50;;;;;;;11.70;58.33;96483.19;107028;1272;22638;-86
2023/05/02 01:53:34;;;;;;;9.40;6.70;;;;;;;11.56;58.28;96485.25;107009;1277;22594;-86
2023/05/02 01:57:01;;;;;;;3.80;2.60;;;;;;;11.46;57.45;96481.89;106964;1277;137724;-86
2023/05/02 02:00:26;;;;;;;1.90;1.60;;;;;;;11.46;56.04;96478.53;107087;1277;22532;-87
2023/05/02 02:03:52;;;;;;;1.90;1.30;;;;;;;11.52;56.59;96483.64;107120;1276;137722;-86
2023/05/02 02:07:19;;;;;;;1.70;1.20;;;;;;;11.56;54.75;96482.49;107077;1280;22552;-85
2023/05/02 02:10:45;;;;;;;1.80;1.30;;;;;;;11.64;54.64;96482.28;106878;1277;139122;-86
2023/05/02 02:14:18;;;;;;;1.90;1.20;;;;;;;11.70;54.39;96488.58;109723;1278;22213;-87
2023/05/02 02:17:52;;;;;;;2.40;1.80;;;;;;;11.77;53.69;96486.73;109662;1283;22192;-86
2023/05/02 02:21:18;;;;;;;1.90;1.30;;;;;;;11.83;52.22;96484.48;109663;1283;137822;-87
2023/05/02 02:24:38;;;;;;;;;;;;;;;;;;;;;
2023/05/02 02:28:12;;;;;;;2.60;1.30;;;;;;;12.07;51.06;96488.19;108825;1283;137538;-86
2023/05/02 02:31:31;;;;;;;;;;;;;;;;;;;;;
2023/05/02 02:35:04;;;;;;;;;;;;;;;;;;;;;
2023/05/02 02:38:24;;;;;;;1.60;0.90;;;;;;;12.35;50.06;96494.08;106871;1276;137742;-87
2023/05/02 02:41:45;;;;;;;;;;;;;;;;;;;;;
2023/05/02 02:45:14;;;;;;;2.20;1.00;;;;;;;12.37;49.79;96499.43;106884;1277;137669;-86
2023/05/02 02:48:43;;;;;;;1.30;0.80;;;;;;;12.39;49.39;96498.57;107140;1276;22649;-86
2023/05/02 02:52:09;;;;;;;2.60;1.20;;;;;;;12.42;49.33;96498.87;106928;1276;137838;-86
2023/05/02 02:55:33;;;;;;;;;;;;;;;;;;;;;
2023/05/02 02:59:11;;;;;;;3.40;1.20;;;;;;;12.48;49.22;96500.59;106946;1278;25305;-86
2023/05/02 03:02:34;;;;;;;2.40;1.00;;;;;;;12.47;49.61;96503.79;109644;1282;137967;-88
2023/05/02 03:06:01;;;;;;;1.20;0.80;;;;;;;12.45;49.35;96508.30;109584;1283;22129;-87
2023/05/02 03:09:13;;;;;;;;;;;;;;;;;;;;;
2023/05/02 03:12:40;;;;;;;2.10;1.00;;;;;;;12.45;50.39;96508.10;109747;1283;22941;-87
2023/05/02 03:16:22;;;;;;;3.10;1.40;;;;;;;12.44;51.48;96510.15;107404;1277;137607;-86
2023/05/02 03:19:42;;;;;;;2.50;1.30;;;;;;;12.36;52.35;96512.45;106753;1283;23470;-86
2023/05/02 03:23:08;;;;;;;1.80;1.20;;;;;;;12.33;51.58;96509.86;106534;1284;22553;-86
2023/05/02 03:26:36;;;;;;;1.30;0.80;;;;;;;12.28;52.10;96509.31;106514;1284;22941;-87
2023/05/02 03:30:03;;;;;;;1.80;1.40;;;;;;;12.26;51.95;96510.46;107077;1276;22594;-86
2023/05/02 03:33:21;;;;;;;;;;;;;;;;;;;;;
2023/05/02 03:36:56;;;;;;;2.20;1.70;;;;;;;12.29;52.60;96515.20;107182;1277;25482;-86
2023/05/02 03:40:20;;;;;;;3.50;1.20;;;;;;;12.30;52.92;96514.05;106976;1284;138455;-86
2023/05/02 03:43:39;;;;;;;2.20;1.30;;;;;;;12.30;53.14;96514.05;109756;1277;22354;-87
2023/05/02 03:46:44;;;;;;;;;;;;;;;12.33;53.30;96511.62;109525;1283;137558;-87
2023/05/02 03:50:03;;;;;;;;;;;;;;;;;;;;;
2023/05/02 03:53:30;;;;;;;2.60;1.20;;;;;;;12.40;52.81;96520.66;109747;1268;22297;-86
2023/05/02 03:56:58;;;;;;;2.30;1.20;;;;;;;12.52;52.41;96519.34;106843;1277;137754;-87
2023/05/02 04:00:24;;;;;;;2.10;1.30;;;;;;;12.65;52.14;96516.36;107114;1277;22648;-86
2023/05/02 04:03:42;;;;;;;2.70;1.30;;;;;;;12.75;52.53;96516.68;106844;1283;138193;-86
2023/05/02 04:07:14;;;;;;;2.70;1.30;;;;;;;12.78;52.19;96514.57;109623;1277;22385;-86
2023/05/02 04:10:34;;;;;;;1.80;1.20;;;;;;;12.87;52.01;96512.75;109585;1277;137950;-86
2023/05/02 04:14:01;;;;;;;1.90;1.50;;;;;;;12.95;52.11;96515.59;109774;1276;22413;-86
2023/05/02 04:17:28;;;;;;;2.30;1.40;;;;;;;13.04;51.84;96512.16;109749;1277;22348;-86
2023/05/02 04:20:54;;;;;;;3.00;1.60;;;;;;;13.17;51.76;96511.85;109703;1278;22345;-86
2023/05/02 04:24:21;;;;;;;2.30;1.50;;;;;;;13.25;51.60;96510.78;108933;1277;22527;-86
2023/05/02 04:27:48;;;;;;;2.30;1.30;;;;;;;13.30;51.68;96515.84;108626;1277;138429;-86
2023/05/02 04:31:06;;;;;;;;;;;;;;;;;;;;;
2023/05/02 04:34:34;;;;;;;5.40;1.80;;;;;;;13.41;51.56;96513.05;106965;1283;137628;-85
2023/05/02 04:38:00;;;;;;;2.70;1.20;;;;;;;13.48;51.66;96513.30;109640;1276;22485;-86
2023/05/02 04:41:27;;;;;;;4.30;1.70;;;;;;;13.54;51.50;96512.21;109602;1283;22280;-87
2023/05/02 04:44:54;;;;;;;4.30;1.60;;;;;;;13.60;51.63;96506.55;109666;1283;22404;-86
2023/05/02 04:48:20;;;;;;;3.90;1.80;;;;;;;13.67;51.63;96509.66;109663;1276;22885;-87
2023/05/02 04:51:47;;;;;;;2.20;1.70;;;;;;;13.76;51.71;96509.36;109643;1277;138320;-87
2023/05/02 04:55:14;;;;;;;3.60;2.00;;;;;;;13.86;51.66;96511.87;109649;1281;22121;-86
2023/05/02 04:58:40;;;;;;;4.80;1.70;;;;;;;13.94;51.71;96511.71;109410;1283;137823;-87
2023/05/02 05:02:03;;;;;;;3.10;1.50;;;;;;;14.00;51.83;96509.95;109463;1285;22360;-86
2023/05/02 05:05:22;;;;;;;;;;;;;;;;;;;;;
2023/05/02 05:08:51;;;;;;;2.20;1.70;;;;;;;14.13;51.64;96512.52;106886;1277;22541;-85
2023/05/02 05:12:17;;;;;;;2.30;1.80;;;;;;;14.17;51.59;96511.71;106944;1283;22534;-87
2023/05/02 05:15:43;;;;;;;2.70;1.70;;;;;;;14.20;51.65;96509.73;106856;1278;137905;-86
2023/05/02 05:19:09;;;;;;;1.80;1.50;;;;;;;14.24;51.67;96513.66;106940;1276;25293;-86
2023/05/02 05:22:35;;;;;;;3.00;2.10;;;;;;;14.28;51.56;96516.70;107038;1276;137587;-86
2023/05/02 05:26:03;;;;;;;2.50;1.70;;;;;;;14.33;51.40;96518.23;109658;1277;23180;-87
2023/05/02 05:29:28;;;;;;;2.70;1.80;;;;;;;14.39;51.49;96517.64;106659;1278;137574;-86
2023/05/02 05:32:55;;;;;;;2.40;1.80;;;;;;;14.45;51.16;96520.70;106995;1278;24101;-86
2023/05/02 05:36:14;;;;;;;;;;;;;;;;;;;;;
2023/05/02 05:39:42;;;;;;;3.30;1.80;;;;;;;14.54;51.17;96526.20;107223;1277;137826;-86
2023/05/02 05:43:09;;;;;;;2.60;2.10;;;;;;;14.57;51.40;96528.71;106949;1276;22599;-87
2023/05/02 05:46:29;;;;;;;5.10;1.90;;;;;;;14.61;51.10;96531.73;106937;1283;138465;-87
2023/05/02 05:49:50;;;;;;;;;;;;;;;;;;;;;
2023/05/02 05:53:18;;;;;;;2.30;1.60;;;;;;;14.69;50.76;96534.67;106846;1278;137586;-86
2023/05/02 05:56:50;;;;;;;3.50;1.80;;;;;;;14.72;50.97;96540.29;107672;1280;22570;-86
2023/05/02 06:00:16;;;;;;;2.80;1.80;;;;;;;14.75;50.77;96542.26;109432;1280;23811;-87
2023/05/02 06:03:43;;;;;;;3.20;2.00;;;;;;;14.79;50.62;96540.10;106941;1283;137765;-86
2023/05/02 06:07:10;;;;;;;3.70;1.90;;;;;;;14.84;50.55;96546.02;106874;1277;22537;-87
2023/05/02 06:10:36;;;;;;;3.50;1.60;;;;;;;14.90;50.55;96545.41;106905;1283;137703;-87
2023/05/02 06:14:03;;;;;;;2.90;2.30;;;;;;;14.96;50.73;96549.50;109700;1283;22338;-87
2023/05/02 06:17:30;;;;;;;4.20;2.20;;;;;;;15.02;50.63;96550.45;109593;1283;138120;-87
2023/05/02 06:20:48;;;;;;;;;;;;;;;;;;;;;
2023/05/02 06:24:16;;;;;;;2.10;1.90;;;;;;;15.17;50.78;96557.71;109772;1283;22350;-88
2023/05/02 06:27:35;;;;;;;3.10;1.50;;;;;;;15.25;50.74;96556.58;109560;1277;138029;-87
2023/05/02 06:31:02;;;;;;;3.80;2.20;;;;;;;15.36;51.10;96561.27;109815;1276;22416;-88
2023/05/02 06:34:29;;;;;;;1.90;1.60;;;;;;;15.44;50.98;96561.59;109351;1278;138163;-87
2023/05/02 06:37:56;;;;;;;2.00;1.80;;;;;;;15.50;50.85;96560.58;106914;1283;23308;-87
2023/05/02 06:41:15;;;;;;;2.30;2.00;;;;;;;15.55;50.96;96562.88;107001;1271;138281;-87
2023/05/02 06:44:42;;;;;;;2.50;2.10;;;;;;;15.62;50.85;96568.00;109794;1283;22261;-88
2023/05/02 06:48:06;;;;;;;;;;;;;;;;;;;;;
2023/05/02 06:51:25;;;;;;;;;;;;;;;;;;;;;
2023/05/02 06:54:44;;;;;;;;;;;;;;;;;;;;;
2023/05/02 06:58:04;;;;;;;3.60;1.70;;;;;;;15.76;50.76;96578.89;106659;1281;137728;-87
2023/05/02 07:01:11;;;;;;;3.00;2.10;;;;;;;15.83;50.49;96576.92;107040;1283;25363;-87
2023/05/02 07:03:40;;;;;;;2.70;1.90;;;;;;;15.93;50.68;96580.49;106948;1278;137528;-86
2023/05/02 07:07:08;;;;;;;3.50;1.80;;;;;;;16.03;51.14;96583.87;107003;1277;22558;-87
2023/05/02 07:10:17;;;;;;;3.20;2.50;;;;;;;16.13;50.82;96582.92;106905;1283;138026;-87
2023/05/02 07:12:43;;;;;;;3.10;2.00;;;;;;;16.21;50.82;96582.74;107037;1277;23359;-86
2023/05/02 07:15:10;;;;;;;3.40;2.10;;;;;;;16.28;50.98;96582.34;106784;1277;138038;-86
2023/05/02 07:18:19;;;;;;;2.80;2.50;;;;;;;16.36;50.63;96589.42;106979;1281;22550;-87
2023/05/02 07:20:45;;;;;;;3.20;2.00;;;;;;;16.45;50.34;96590.73;106992;1283;137703;-86
2023/05/02 07:24:13;;;;;;;3.00;2.40;;;;;;;16.52;50.65;96594.19;106958;1281;23032;-86
2023/05/02 07:26:38;;;;;;;2.80;1.70;;;;;;;16.61;50.77;96599.79;106852;1281;137731;-86
2023/05/02 07:29:28;;;;;;;3.90;2.30;;;;;;;16.64;50.31;96606.60;106983;1279;25311;-84
2023/05/02 07:31:54;;;;;;;3.90;2.20;;;;;;;16.68;50.21;96600.30;107128;1281;22681;-86
2023/05/02 07:34:20;;;;;;;2.70;1.90;;;;;;;16.71;50.11;96601.13;106857;1283;138362;-85
2023/05/02 07:37:07;;;;;;;5.00;2.10;;;;;;;16.75;50.43;96605.98;106999;1279;22569;-86
2023/05/02 07:39:33;;;;;;;2.80;2.10;;;;;;;16.81;50.19;96606.27;107051;1276;137498;-86
2023/05/02 07:41:59;;;;;;;2.60;1.80;;;;;;;16.84;49.89;96606.02;107057;1277;22540;-85
2023/05/02 07:44:39;;;;;;;3.00;2.30;;;;;;;16.85;49.36;96600.52;106999;1283;22559;-85
2023/05/02 07:47:40;;;;;;;6.40;2.90;;;;;;;16.88;50.19;96604.41;107002;1283;25247;-86
2023/05/02 07:50:11;;;;;;;2.60;2.00;;;;;;;16.94;50.37;96612.92;107144;1283;22585;-86
2023/05/02 07:53:01;;;;;;;3.60;2.20;;;;;;;17.01;50.14;96614.63;106774;1277;137582;-86
2023/05/02 07:56:29;;;;;;;3.10;2.30;;;;;;;17.06;50.19;96615.73;106963;1283;24215;-86
2023/05/02 08:00:20;;;;;;;3.40;2.50;;;;;;;17.06;50.00;96615.63;106856;1283;137427;-86
2023/05/02 08:03:23;;;;;;;6.20;3.80;;;;;;;17.10;50.86;96618.44;106935;1281;22532;-86
2023/05/02 08:06:49;;;;;;;3.60;3.10;;;;;;;17.18;50.92;96616.36;106908;1283;22737;-86
2023/05/02 08:10:16;;;;;;;2.60;2.20;;;;;;;17.24;50.83;96623.90;106754;1276;137983;-86
2023/05/02 08:13:42;;;;;;;2.90;2.30;;;;;;;17.27;50.49;96624.36;106906;1278;24138;-85
2023/05/02 08:17:09;;;;;;;2.80;2.20;;;;;;;17.26;49.82;96623.45;106795;1281;137493;-85
2023/05/02 08:20:36;;;;;;;2.80;2.30;;;;;;;17.29;49.86;96622.69;109685;1277;22183;-86
2023/05/02 08:24:01;;;;;;;3.50;2.70;;;;;;;17.40;51.24;96621.73;106808;1277;138101;-85
2023/05/02 08:27:28;;;;;;;12.10;3.50;;;;;;;17.51;50.81;96626.45;107005;1280;22547;-86
2023/05/02 08:30:54;;;;;;;4.00;2.40;;;;;;;17.56;50.73;96623.84;106903;1280;22713;-86
2023/05/02 08:34:11;;;;;;;4.60;2.00;;;;;;;17.56;50.00;96620.36;106795;1282;137836;-85
2023/05/02 08:37:31;;;;;;;3.00;2.30;;;;;;;17.58;50.12;96618.33;107066;1284;25355;-86
2023/05/02 08:40:58;;;;;;;3.80;3.00;;;;;;;17.66;50.92;96616.98;106917;1283;137523;-86
2023/05/02 08:44:25;;;;;;;3.30;2.60;;;;;;;17.78;50.84;96626.21;106963;1283;25341;-86
2023/05/02 08:47:51;;;;;;;3.00;2.50;;;;;;;17.86;50.80;96623.59;106776;1278;137689;-86
2023/05/02 08:51:18;;;;;;;2.60;2.10;;;;;;;17.93;50.28;96620.69;106780;1283;22552;-86
2023/05/02 08:54:45;;;;;;;4.50;2.30;;;;;;;17.97;50.64;96626.94;109664;1283;22199;-86
2023/05/02 08:58:11;;;;;;;3.50;2.40;;;;;;;18.03;50.20;96632.71;109657;1280;137712;-85
2023/05/02 09:01:41;;;;;;;3.00;2.40;;;;;;;18.07;50.25;96630.30;107185;1284;24127;-85
2023/05/02 09:05:08;;;;;;;3.50;2.20;;;;;;;18.09;50.44;96630.10;106713;1284;137909;-85
2023/05/02 09:09:11;;;;;;;2.70;2.40;;;;;;;18.11;50.19;96628.30;106891;1283;25321;-85
2023/05/02 09:12:15;;;;;;;2.70;2.40;;;;;;;18.12;49.67;96628.40;106784;1276;22575;-86
2023/05/02 09:15:35;;;;;;;3.70;2.50;;;;;;;18.14;50.72;96631.54;106919;1280;22635;-86
2023/05/02 09:19:02;;;;;;;3.20;2.70;;;;;;;18.13;50.36;96632.92;106938;1283;25265;-86
2023/05/02 09:22:32;;;;;;;4.50;2.50;;;;;;;18.08;49.72;96634.09;106874;1281;137661;-85
2023/05/02 09:25:58;;;;;;;5.20;3.70;;;;;;;18.05;49.55;96636.34;106940;1276;22563;-86
2023/05/02 09:29:29;;;;;;;6.60;3.90;;;;;;;18.01;49.34;96637.56;106644;1283;137453;-86
2023/05/02 09:33:18;;;;;;;32.70;12.10;;;;;;;17.99;49.57;96635.61;106881;1278;22726;-85
2023/05/02 09:36:20;;;;;;;3.20;2.40;;;;;;;17.95;48.72;96640.16;106891;1283;22612;-86
2023/05/02 09:39:50;;;;;;;2.90;2.00;;;;;;;17.94;48.61;96642.64;107092;1280;22668;-86
2023/05/02 09:43:17;;;;;;;4.10;2.70;;;;;;;17.92;48.47;96646.02;106727;1281;22564;-86
2023/05/02 09:46:49;;;;;;;3.20;2.40;;;;;;;17.90;47.97;96646.24;106832;1281;138255;-86
2023/05/02 09:50:12;;;;;;;2.60;2.20;;;;;;;17.88;47.87;96648.08;106876;1281;22666;-85
2023/05/02 09:53:41;;;;;;;6.00;2.20;;;;;;;17.91;48.47;96647.56;106935;1278;137509;-85
2023/05/02 09:57:09;;;;;;;4.30;2.40;;;;;;;17.95;48.12;96652.81;106717;1276;23910;-86
2023/05/02 10:00:34;;;;;;;2.60;2.00;;;;;;;17.95;47.86;96649.91;106983;1261;22590;-86
2023/05/02 10:04:01;;;;;;;3.60;2.20;;;;;;;17.94;47.43;96653.42;106918;1283;22564;-86
2023/05/02 10:07:28;;;;;;;2.70;2.50;;;;;;;17.96;47.67;96652.67;107129;1279;22524;-85
2023/05/02 10:10:55;;;;;;;3.50;2.30;;;;;;;18.00;48.67;96657.30;106781;1282;138318;-86
2023/05/02 10:14:21;;;;;;;5.70;4.00;;;;;;;18.10;49.60;96658.05;106838;1281;22557;-84
2023/05/02 10:17:54;;;;;;;6.00;5.10;;;;;;;18.15;48.34;96656.88;106838;1283;137542;-86
2023/05/02 10:21:00;;;;;;;;;;;;;;;18.19;48.86;96656.81;107080;1284;24273;-86
2023/05/02 10:24:26;;;;;;;6.40;4.00;;;;;;;18.18;48.15;96657.41;106980;1281;124244;-86
2023/05/02 10:27:53;;;;;;;3.00;2.70;;;;;;;18.13;48.63;96660.59;109801;1284;22392;-86
2023/05/02 10:31:20;;;;;;;4.30;3.90;;;;;;;18.05;49.31;96667.64;109767;1283;23177;-86
2023/05/02 10:34:46;;;;;;;6.40;2.50;;;;;;;17.99;50.17;96672.94;108028;1277;137683;-85
2023/05/02 10:38:14;;;;;;;4.10;2.50;;;;;;;17.98;50.09;96678.02;106887;1282;25423;-86
2023/05/02 10:41:40;;;;;;;4.70;3.10;;;;;;;17.93;50.50;96676.42;106860;1283;137817;-86
2023/05/02 10:45:13;;;;;;;4.20;3.20;;;;;;;17.97;51.90;96678.95;106892;1283;26721;-85
2023/05/02 10:48:37;;;;;;;3.40;2.90;;;;;;;18.01;51.25;96681.09;106759;1283;137413;-86
2023/05/02 10:52:07;;;;;;;4.10;3.20;;;;;;;18.00;51.88;96682.18;106867;1283;23366;-86
2023/05/02 10:55:33;;;;;;;4.90;3.40;;;;;;;18.01;52.18;96682.83;106787;1276;22539;-86
2023/05/02 10:59:00;;;;;;;3.70;2.40;;;;;;;18.02;52.20;96680.79;106801;1279;139587;-86
2023/05/02 11:02:24;;;;;;;5.10;2.60;;;;;;;18.03;52.00;96682.77;106806;1279;22536;-85
2023/05/02 11:06:02;;;;;;;3.80;2.70;;;;;;;18.03;52.61;96681.41;106945;1283;138953;-87
2023/05/02 11:09:29;;;;;;;4.80;2.80;;;;;;;18.06;52.91;96685.48;107222;1284;22546;-89
2023/05/02 11:12:56;;;;;;;4.70;3.00;;;;;;;18.08;52.27;96684.14;109002;1283;22586;-87
2023/05/02 11:16:31;;;;;;;6.00;3.20;;;;;;;18.10;53.05;96683.41;106856;1285;22674;-85
2023/05/02 11:19:58;;;;;;;9.00;6.20;;;;;;;18.29;53.02;96683.54;106774;1284;22658;-86
2023/05/02 11:26:57;;;;;;;5.80;4.30;;;;;;;18.65;52.48;96684.38;107017;1282;22548;-86
2023/05/02 11:30:36;;;;;;;5.00;3.90;;;;;;;18.73;52.79;96681.86;106789;1279;137993;-86
2023/05/02 11:34:05;;;;;;;5.00;3.30;;;;;;;18.71;52.44;96686.17;106950;1282;25513;-86
2023/05/02 11:40:59;;;;;;;7.40;5.30;;;;;;;18.77;52.79;96688.17;106692;1283;138247;-86
2023/05/02 11:44:25;;;;;;;6.70;5.50;;;;;;;18.78;52.42;96688.77;106875;1279;23381;-87
2023/05/02 11:47:52;;;;;;;8.60;7.70;;;;;;;18.70;51.52;96691.41;106975;1283;137749;-87
2023/05/02 11:51:43;;;;;;;7.30;6.40;;;;;;;18.55;51.53;96694.66;106879;1284;23396;-87
2023/05/02 11:54:51;;;;;;;6.70;5.80;;;;;;;18.49;51.76;96690.91;106774;1276;137531;-87
2023/05/02 11:58:17;;;;;;;7.20;3.50;;;;;;;18.50;51.69;96691.04;106871;1281;22554;-86
2023/05/02 12:01:54;;;;;;;5.30;3.10;;;;;;;18.51;51.75;96692.73;106858;1284;22554;-86
2023/05/02 12:05:22;;;;;;;5.50;3.90;;;;;;;18.51;51.66;96691.48;106662;1282;138006;-87
2023/05/02 12:08:52;;;;;;;19.80;14.90;;;;;;;18.54;52.55;96690.09;106627;1280;22653;-87
2023/05/02 12:12:13;;;;;;;;;;;;;;;;;;;;;
2023/05/02 12:15:42;;;;;;;11.70;8.80;;;;;;;18.52;52.64;96696.67;108957;1277;22588;-87
2023/05/02 12:19:08;;;;;;;20.70;14.60;;;;;;;18.53;52.96;96695.00;106895;1284;24261;-87
2023/05/02 12:21:37;;;;;;;12.00;8.10;;;;;;;18.51;52.13;96695.69;106860;1284;24274;-88
2023/05/02 12:25:04;;;;;;;14.20;11.80;;;;;;;18.48;52.53;96694.73;106775;1284;137719;-87
2023/05/02 12:28:40;;;;;;;28.50;23.80;;;;;;;18.44;51.96;96690.45;106896;1284;23910;-85
2023/05/02 12:32:07;;;;;;;8.20;6.40;;;;;;;18.44;52.78;96697.21;106825;1283;22553;-85
2023/05/02 12:35:36;;;;;;;5.70;4.80;;;;;;;18.50;52.84;96705.29;106759;1283;138347;-86
2023/05/02 12:39:03;;;;;;;8.70;7.50;;;;;;;18.48;51.81;96707.63;107027;1283;24465;-87
2023/05/02 12:42:33;;;;;;;6.60;4.70;;;;;;;18.50;52.19;96701.66;106933;1277;138803;-86
2023/05/02 12:46:00;;;;;;;4.80;3.50;;;;;;;18.51;51.45;96703.54;106903;1277;24436;-87
2023/05/02 12:49:26;;;;;;;6.70;3.60;;;;;;;18.47;51.12;96703.16;106713;1283;22540;-86
2023/05/02 12:52:57;;;;;;;5.00;4.50;;;;;;;18.48;52.60;96705.29;106911;1276;138533;-88
2023/05/02 12:56:20;;;;;;;24.20;18.10;;;;;;;18.48;51.64;96703.71;106933;1276;22652;-87
2023/05/02 12:59:45;;;;;;;;;;;;;;;;;;;;;
2023/05/02 13:03:12;;;;;;;107.40;71.60;;;;;;;18.53;52.54;96716.78;106893;1280;24250;-86
2023/05/02 13:06:39;;;;;;;213.10;111.80;;;;;;;18.54;52.59;96714.78;106713;1277;138437;-86
2023/05/02 13:10:05;;;;;;;346.50;176.80;;;;;;;18.55;52.61;96719.60;106916;1280;24276;-87
2023/05/02 13:13:32;;;;;;;64.40;39.10;;;;;;;18.51;53.20;96715.31;107023;1276;22573;-87
2023/05/02 13:16:59;;;;;;;279.20;125.40;;;;;;;18.49;52.58;96712.06;106857;1277;138134;-87
2023/05/02 13:20:26;;;;;;;44.00;21.50;;;;;;;18.38;52.23;96715.63;106872;1281;24218;-87
2023/05/02 13:23:54;;;;;;;99.00;40.70;;;;;;;18.26;52.61;96716.27;106856;1277;139182;-86
2023/05/02 13:27:20;;;;;;;29.20;14.20;;;;;;;18.19;52.85;96714.92;106980;1277;22531;-86
2023/05/02 13:30:46;;;;;;;20.20;9.50;;;;;;;18.19;53.11;96714.98;106785;1280;138399;-86
2023/05/02 13:34:13;;;;;;;35.40;21.90;;;;;;;18.16;53.32;96711.13;106909;1283;22934;-86
2023/05/02 13:37:40;;;;;;;44.10;27.20;;;;;;;18.13;53.42;96718.98;107024;1276;22725;-85
2023/05/02 13:41:07;;;;;;;22.00;12.20;;;;;;;18.08;53.42;96724.91;107093;1276;138010;-88
2023/05/02 13:44:54;;;;;;;17.80;9.60;;;;;;;18.04;53.90;96730.16;107149;1276;22606;-85
2023/05/02 13:48:02;;;;;;;10.20;7.70;;;;;;;17.86;54.79;96737.20;106914;1283;137795;-85
2023/05/02 13:51:30;;;;;;;15.90;11.30;;;;;;;17.74;55.85;96737.89;106939;1277;25296;-85
2023/05/02 13:54:56;;;;;;;17.70;12.70;;;;;;;17.66;57.45;96743.67;106839;1276;139048;-86
2023/05/02 13:58:22;;;;;;;33.30;18.80;;;;;;;17.55;58.15;96761.16;106912;1276;22596;-86
2023/05/02 14:01:42;;;;;;;17.80;13.30;;;;;;;17.31;59.27;96766.10;106857;1281;24224;-85
2023/05/02 14:05:09;;;;;;;127.20;77.20;;;;;;;17.19;60.64;96758.18;106754;1276;138633;-85
2023/05/02 14:08:36;;;;;;;46.30;29.60;;;;;;;17.11;61.45;96750.38;106882;1280;23194;-86
2023/05/02 14:12:03;;;;;;;10.80;9.80;;;;;;;16.97;62.56;96740.27;106793;1276;137916;-86
2023/05/02 14:15:30;;;;;;;9.30;8.40;;;;;;;16.78;62.86;96742.63;107120;1277;22547;-86
2023/05/02 14:18:56;;;;;;;9.50;8.50;;;;;;;16.84;63.53;96750.84;108851;1277;137750;-87
2023/05/02 14:22:23;;;;;;;11.00;9.90;;;;;;;16.94;63.54;96752.08;106990;1281;23855;-86
2023/05/02 14:25:50;;;;;;;8.30;7.50;;;;;;;17.03;63.99;96756.65;107218;1283;24257;-86
2023/05/02 14:29:17;;;;;;;9.40;8.40;;;;;;;17.04;62.50;96755.39;106812;1277;137910;-85
2023/05/02 14:32:42;;;;;;;6.90;6.10;;;;;;;17.02;62.66;96757.48;107045;1276;22568;-85
2023/05/02 14:36:09;;;;;;;7.80;7.00;;;;;;;16.99;62.91;96767.47;107403;1283;139027;-86
2023/05/02 14:39:36;;;;;;;7.60;6.30;;;;;;;16.92;62.60;96774.98;107181;1277;25136;-86
2023/05/02 14:43:04;;;;;;;6.90;6.20;;;;;;;16.75;62.76;96782.10;107232;1276;139237;-87
2023/05/02 14:46:31;;;;;;;14.90;11.40;;;;;;;16.66;63.32;96788.56;107234;1276;23031;-85
2023/05/02 14:49:57;;;;;;;8.20;7.50;;;;;;;16.61;63.99;96782.36;106887;1277;22644;-85
2023/05/02 14:53:23;;;;;;;13.30;8.10;;;;;;;16.59;65.02;96776.71;106838;1275;138108;-85
2023/05/02 14:56:52;;;;;;;9.10;7.90;;;;;;;16.54;65.12;96778.64;106994;1278;22533;-85
2023/05/02 15:00:19;;;;;;;18.50;15.40;;;;;;;16.50;65.80;96771.88;107996;1283;138412;-85
2023/05/02 15:03:46;;;;;;;14.80;12.00;;;;;;;16.48;66.62;96784.69;109618;1284;22249;-85
2023/05/02 15:07:12;;;;;;;27.90;18.50;;;;;;;16.40;67.08;96797.45;109534;1284;138542;-85
2023/05/02 15:10:36;;;;;;;;;;;;;;;;;;;;;
2023/05/02 15:14:05;;;;;;;15.10;10.90;;;;;;;16.16;67.91;96822.88;109654;1276;22373;-85
2023/05/02 15:17:32;;;;;;;11.90;10.50;;;;;;;16.01;69.46;96836.61;108512;1276;138052;-85
2023/05/02 15:20:43;;;;;;;;;;;;;;;;;;;;;
2023/05/02 15:24:10;;;;;;;14.60;11.30;;;;;;;15.61;70.69;96890.77;109700;1276;138297;-85
2023/05/02 15:27:46;;;;;;;14.90;11.60;;;;;;;15.46;72.45;96896.18;109505;1276;22360;-85
2023/05/02 15:31:37;;;;;;;12.80;11.10;;;;;;;15.38;75.16;96901.72;109588;1277;138322;-85
2023/05/02 15:34:40;;;;;;;15.90;12.80;;;;;;;15.20;75.46;96900.19;102977;1283;22586;-84
2023/05/02 15:38:07;;;;;;;14.70;13.30;;;;;;;15.10;75.89;96872.98;106900;1277;22543;-85
2023/05/02 15:41:36;;;;;;;11.60;10.20;;;;;;;15.07;76.83;96872.61;106957;1276;140218;-84
2023/05/02 15:45:05;;;;;;;14.50;13.10;;;;;;;14.94;76.89;96894.03;107001;1283;22572;-85
2023/05/02 15:48:32;;;;;;;10.20;8.60;;;;;;;14.97;77.61;96911.09;106894;1276;139244;-85
2023/05/02 15:51:58;;;;;;;9.60;8.10;;;;;;;14.83;78.09;96916.46;106867;1280;22532;-85
2023/05/02 15:55:24;;;;;;;13.70;8.90;;;;;;;14.66;77.95;96908.30;106952;1276;140137;-85
2023/05/02 15:58:51;;;;;;;15.30;10.70;;;;;;;14.47;78.05;96909.00;107008;1276;25395;-85
2023/05/02 16:02:18;;;;;;;113.50;53.10;;;;;;;14.40;79.39;96905.30;106835;1276;22553;-85
2023/05/02 16:05:45;;;;;;;53.20;26.70;;;;;;;14.46;79.55;96900.73;106824;1276;138723;-84
2023/05/02 16:09:11;;;;;;;34.50;17.50;;;;;;;14.54;80.24;96903.89;109508;1276;22195;-85
2023/05/02 16:12:30;;;;;;;;;;;;;;;;;;;;;
2023/05/02 16:15:57;;;;;;;11.00;7.70;;;;;;;14.72;80.26;96902.48;109754;1276;22814;-84
2023/05/02 16:19:16;;;;;;;8.90;5.90;;;;;;;14.71;80.16;96906.11;109497;1280;138422;-85
2023/05/02 16:23:08;;;;;;;13.00;8.30;;;;;;;14.73;80.57;96912.23;109695;1281;22271;-85
2023/05/02 16:26:02;;;;;;;;;;;;;;;;;;;;;
2023/05/02 16:29:30;;;;;;;6.50;5.40;;;;;;;14.68;80.67;96933.83;109588;1276;22975;-85
2023/05/02 16:33:17;;;;;;;7.10;5.60;;;;;;;14.65;80.27;96938.30;109625;1276;22329;-85
2023/05/02 16:36:17;;;;;;;;;;;;;;;;;;;;;